sensor_id;sensor_type;location;lat;lon;timestamp;pressure;altitude;pressure_sealevel;temperature;humidity
64616;BME280;51027;42.162;24.754;2022-09-12T00:00:20;99334.44;;;18.63;98.07
64616;BME280;51027;42.162;24.754;2022-09-12T00:02:51;99340.00;;;18.60;98.26
64616;BME280;51027;42.162;24.754;2022-09-12T00:05:17;99328.00;;;18.55;98.54
64616;BME280;51027;42.162;24.754;2022-09-12T00:07:43;99339.03;;;18.50;98.11
64616;BME280;51027;42.162;24.754;2022-09-12T00:10:09;99339.50;;;18.55;98.11
64616;BME280;51027;42.162;24.754;2022-09-12T00:12:46;99331.03;;;18.61;98.94
64616;BME280;51027;42.162;24.754;2022-09-12T00:15:13;99325.56;;;18.63;100.00
64616;BME280;51027;42.162;24.754;2022-09-12T00:17:38;99327.41;;;18.62;99.22
64616;BME280;51027;42.162;24.754;2022-09-12T00:20:23;99332.41;;;18.67;100.00
64616;BME280;51027;42.162;24.754;2022-09-12T00:22:48;99332.53;;;18.65;100.00
64616;BME280;51027;42.162;24.754;2022-09-12T00:25:14;99343.06;;;18.67;100.00
64616;BME280;51027;42.162;24.754;2022-09-12T00:27:40;99351.06;;;18.67;100.00
64616;BME280;51027;42.162;24.754;2022-09-12T00:30:06;99352.00;;;18.55;100.00
64616;BME280;51027;42.162;24.754;2022-09-12T00:33:02;99356.47;;;18.54;100.00
64616;BME280;51027;42.162;24.754;2022-09-12T00:35:55;99357.88;;;18.36;100.00
64616;BME280;51027;42.162;24.754;2022-09-12T00:47:05;99341.06;;;18.00;100.00
64616;BME280;51027;42.162;24.754;2022-09-12T00:55:58;99328.72;;;17.99;100.00
64616;BME280;51027;42.162;24.754;2022-09-12T01:02:07;99338.53;;;17.99;100.00
64616;BME280;51027;42.162;24.754;2022-09-12T01:08:48;99326.41;;;18.06;100.00
64616;BME280;51027;42.162;24.754;2022-09-12T01:11:51;99332.38;;;18.09;100.00
64616;BME280;51027;42.162;24.754;2022-09-12T01:18:23;99327.75;;;18.00;100.00
64616;BME280;51027;42.162;24.754;2022-09-12T01:21:34;99335.91;;;18.10;100.00
64616;BME280;51027;42.162;24.754;2022-09-12T01:30:21;99326.66;;;18.03;100.00
64616;BME280;51027;42.162;24.754;2022-09-12T01:33:05;99326.31;;;18.07;100.00
64616;BME280;51027;42.162;24.754;2022-09-12T01:41:35;99312.75;;;18.10;100.00
64616;BME280;51027;42.162;24.754;2022-09-12T01:44:34;99309.59;;;18.17;100.00
64616;BME280;51027;42.162;24.754;2022-09-12T01:47:06;99321.59;;;18.11;100.00
64616;BME280;51027;42.162;24.754;2022-09-12T01:50:05;99311.91;;;18.10;100.00
64616;BME280;51027;42.162;24.754;2022-09-12T01:52:57;99291.22;;;17.78;100.00
64616;BME280;51027;42.162;24.754;2022-09-12T01:55:30;99292.81;;;17.81;100.00
64616;BME280;51027;42.162;24.754;2022-09-12T02:00:35;99303.66;;;18.02;100.00
64616;BME280;51027;42.162;24.754;2022-09-12T02:03:08;99298.28;;;17.91;100.00
64616;BME280;51027;42.162;24.754;2022-09-12T02:05:38;99281.63;;;17.76;100.00
64616;BME280;51027;42.162;24.754;2022-09-12T02:08:12;99300.22;;;17.89;100.00
64616;BME280;51027;42.162;24.754;2022-09-12T02:11:10;99286.13;;;17.87;100.00
64616;BME280;51027;42.162;24.754;2022-09-12T02:16:08;99302.78;;;17.90;100.00
64616;BME280;51027;42.162;24.754;2022-09-12T02:18:39;99298.84;;;17.83;100.00
64616;BME280;51027;42.162;24.754;2022-09-12T02:21:08;99297.03;;;17.83;100.00
64616;BME280;51027;42.162;24.754;2022-09-12T02:23:39;99305.59;;;17.76;100.00
64616;BME280;51027;42.162;24.754;2022-09-12T02:26:12;99307.91;;;17.69;100.00
64616;BME280;51027;42.162;24.754;2022-09-12T02:28:41;99297.88;;;17.60;100.00
64616;BME280;51027;42.162;24.754;2022-09-12T02:33:57;99303.81;;;17.64;100.00
64616;BME280;51027;42.162;24.754;2022-09-12T02:37:02;99303.72;;;17.65;100.00
64616;BME280;51027;42.162;24.754;2022-09-12T02:39:30;99307.00;;;17.69;99.35
64616;BME280;51027;42.162;24.754;2022-09-12T02:41:58;99301.63;;;17.58;98.07
64616;BME280;51027;42.162;24.754;2022-09-12T02:44:26;99310.69;;;17.55;97.13
64616;BME280;51027;42.162;24.754;2022-09-12T02:46:59;99304.91;;;17.61;97.12
64616;BME280;51027;42.162;24.754;2022-09-12T02:49:26;99291.13;;;17.43;97.61
64616;BME280;51027;42.162;24.754;2022-09-12T02:51:52;99298.44;;;17.52;96.38
64616;BME280;51027;42.162;24.754;2022-09-12T02:54:18;99277.38;;;17.49;96.41
64616;BME280;51027;42.162;24.754;2022-09-12T02:56:44;99305.88;;;17.60;96.79
64616;BME280;51027;42.162;24.754;2022-09-12T02:59:16;99296.03;;;17.49;96.04
64616;BME280;51027;42.162;24.754;2022-09-12T03:09:54;99296.44;;;17.67;94.04
64616;BME280;51027;42.162;24.754;2022-09-12T03:20:40;99291.25;;;17.66;92.31
64616;BME280;51027;42.162;24.754;2022-09-12T03:23:36;99285.53;;;17.59;91.92
64616;BME280;51027;42.162;24.754;2022-09-12T03:26:14;99273.47;;;17.42;90.67
64616;BME280;51027;42.162;24.754;2022-09-12T03:28:43;99315.44;;;17.63;91.76
64616;BME280;51027;42.162;24.754;2022-09-12T03:31:12;99305.16;;;17.58;90.59
64616;BME280;51027;42.162;24.754;2022-09-12T03:33:38;99303.09;;;17.62;91.43
64616;BME280;51027;42.162;24.754;2022-09-12T03:36:04;99293.47;;;17.48;90.80
64616;BME280;51027;42.162;24.754;2022-09-12T03:38:30;99294.03;;;17.40;91.34
64616;BME280;51027;42.162;24.754;2022-09-12T03:40:55;99309.34;;;17.49;90.68
64616;BME280;51027;42.162;24.754;2022-09-12T03:43:20;99311.16;;;17.49;90.91
64616;BME280;51027;42.162;24.754;2022-09-12T03:45:49;99304.84;;;17.50;90.96
64616;BME280;51027;42.162;24.754;2022-09-12T03:48:16;99310.69;;;17.55;91.74
64616;BME280;51027;42.162;24.754;2022-09-12T03:50:41;99290.72;;;17.37;91.17
64616;BME280;51027;42.162;24.754;2022-09-12T03:53:07;99310.69;;;17.55;90.85
64616;BME280;51027;42.162;24.754;2022-09-12T03:55:32;99306.69;;;17.49;91.31
64616;BME280;51027;42.162;24.754;2022-09-12T03:57:57;99310.81;;;17.53;91.46
64616;BME280;51027;42.162;24.754;2022-09-12T04:00:23;99303.72;;;17.41;90.61
64616;BME280;51027;42.162;24.754;2022-09-12T04:02:52;99320.78;;;17.26;90.56
64616;BME280;51027;42.162;24.754;2022-09-12T04:05:18;99308.97;;;17.30;92.13
64616;BME280;51027;42.162;24.754;2022-09-12T04:07:43;99310.44;;;17.34;91.35
64616;BME280;51027;42.162;24.754;2022-09-12T04:10:09;99284.44;;;17.14;92.25
64616;BME280;51027;42.162;24.754;2022-09-12T04:12:34;99324.41;;;17.25;92.21
64616;BME280;51027;42.162;24.754;2022-09-12T04:15:00;99320.00;;;17.13;92.55
64616;BME280;51027;42.162;24.754;2022-09-12T04:17:25;99324.28;;;17.03;92.61
64616;BME280;51027;42.162;24.754;2022-09-12T04:19:50;99315.56;;;17.01;92.30
64616;BME280;51027;42.162;24.754;2022-09-12T04:22:16;99318.44;;;16.97;93.12
64616;BME280;51027;42.162;24.754;2022-09-12T04:24:41;99325.97;;;17.04;93.81
64616;BME280;51027;42.162;24.754;2022-09-12T04:27:06;99334.50;;;17.09;94.13
64616;BME280;51027;42.162;24.754;2022-09-12T04:29:32;99334.19;;;17.01;93.40
64616;BME280;51027;42.162;24.754;2022-09-12T04:31:57;99342.28;;;16.99;93.55
64616;BME280;51027;42.162;24.754;2022-09-12T04:34:23;99335.47;;;16.95;92.56
64616;BME280;51027;42.162;24.754;2022-09-12T04:36:48;99337.16;;;17.09;92.80
64616;BME280;51027;42.162;24.754;2022-09-12T04:39:14;99334.81;;;17.17;93.29
64616;BME280;51027;42.162;24.754;2022-09-12T04:41:41;99340.44;;;17.12;91.30
64616;BME280;51027;42.162;24.754;2022-09-12T04:44:10;99349.47;;;17.22;90.75
64616;BME280;51027;42.162;24.754;2022-09-12T04:46:38;99325.34;;;17.00;89.97
64616;BME280;51027;42.162;24.754;2022-09-12T04:49:04;99345.22;;;17.20;90.06
64616;BME280;51027;42.162;24.754;2022-09-12T04:51:31;99356.66;;;17.33;90.24
64616;BME280;51027;42.162;24.754;2022-09-12T04:54:03;99358.38;;;17.34;89.23
64616;BME280;51027;42.162;24.754;2022-09-12T04:56:29;99355.75;;;17.21;88.60
64616;BME280;51027;42.162;24.754;2022-09-12T04:58:56;99362.97;;;17.32;89.38
64616;BME280;51027;42.162;24.754;2022-09-12T05:01:22;99353.03;;;17.34;88.92
64616;BME280;51027;42.162;24.754;2022-09-12T05:03:49;99369.66;;;17.38;88.37
64616;BME280;51027;42.162;24.754;2022-09-12T05:06:26;99361.28;;;17.55;88.34
64616;BME280;51027;42.162;24.754;2022-09-12T05:08:52;99370.22;;;17.54;88.26
64616;BME280;51027;42.162;24.754;2022-09-12T05:11:39;99368.47;;;17.78;88.26
64616;BME280;51027;42.162;24.754;2022-09-12T05:14:05;99368.91;;;17.72;87.22
64616;BME280;51027;42.162;24.754;2022-09-12T05:16:31;99373.56;;;17.81;87.54
64616;BME280;51027;42.162;24.754;2022-09-12T05:18:57;99359.53;;;17.79;87.17
64616;BME280;51027;42.162;24.754;2022-09-12T05:21:24;99386.88;;;18.05;86.75
64616;BME280;51027;42.162;24.754;2022-09-12T05:23:54;99378.06;;;17.81;86.12
64616;BME280;51027;42.162;24.754;2022-09-12T05:26:21;99387.00;;;17.80;86.09
64616;BME280;51027;42.162;24.754;2022-09-12T05:28:48;99381.63;;;17.93;86.27
64616;BME280;51027;42.162;24.754;2022-09-12T05:31:16;99385.78;;;18.08;84.55
64616;BME280;51027;42.162;24.754;2022-09-12T05:33:44;99388.88;;;18.26;84.83
64616;BME280;51027;42.162;24.754;2022-09-12T05:36:12;99372.16;;;18.24;84.04
64616;BME280;51027;42.162;24.754;2022-09-12T05:38:38;99400.78;;;18.33;83.46
64616;BME280;51027;42.162;24.754;2022-09-12T05:41:11;99389.91;;;18.47;83.42
64616;BME280;51027;42.162;24.754;2022-09-12T05:43:38;99387.19;;;18.25;83.24
64616;BME280;51027;42.162;24.754;2022-09-12T05:46:06;99394.22;;;18.26;82.95
64616;BME280;51027;42.162;24.754;2022-09-12T05:48:33;99397.41;;;18.31;83.64
64616;BME280;51027;42.162;24.754;2022-09-12T05:51:04;99384.25;;;18.52;83.25
64616;BME280;51027;42.162;24.754;2022-09-12T05:53:31;99384.81;;;18.90;82.22
64616;BME280;51027;42.162;24.754;2022-09-12T05:56:11;99392.47;;;18.95;81.07
64616;BME280;51027;42.162;24.754;2022-09-12T05:58:41;99397.69;;;18.50;80.43
64616;BME280;51027;42.162;24.754;2022-09-12T06:01:11;99393.56;;;18.46;79.85
64616;BME280;51027;42.162;24.754;2022-09-12T06:03:41;99390.63;;;18.73;79.62
64616;BME280;51027;42.162;24.754;2022-09-12T06:06:07;99389.41;;;18.77;78.69
64616;BME280;51027;42.162;24.754;2022-09-12T06:08:33;99391.22;;;18.88;78.23
64616;BME280;51027;42.162;24.754;2022-09-12T06:11:03;99390.16;;;18.44;77.69
64616;BME280;51027;42.162;24.754;2022-09-12T06:13:31;99386.72;;;18.77;77.00
64616;BME280;51027;42.162;24.754;2022-09-12T06:16:04;99380.63;;;18.64;77.36
64616;BME280;51027;42.162;24.754;2022-09-12T06:18:31;99376.56;;;18.93;76.84
64616;BME280;51027;42.162;24.754;2022-09-12T06:21:01;99377.03;;;18.98;77.25
64616;BME280;51027;42.162;24.754;2022-09-12T06:23:26;99378.97;;;19.08;76.46
64616;BME280;51027;42.162;24.754;2022-09-12T06:25:51;99379.47;;;19.24;75.29
64616;BME280;51027;42.162;24.754;2022-09-12T06:28:17;99374.63;;;18.95;75.59
64616;BME280;51027;42.162;24.754;2022-09-12T06:30:43;99381.31;;;19.23;75.61
64616;BME280;51027;42.162;24.754;2022-09-12T06:33:08;99378.84;;;19.43;74.77
64616;BME280;51027;42.162;24.754;2022-09-12T06:35:37;99357.47;;;19.54;75.41
64616;BME280;51027;42.162;24.754;2022-09-12T06:38:03;99375.09;;;19.56;73.78
64616;BME280;51027;42.162;24.754;2022-09-12T06:40:30;99375.53;;;19.62;73.81
64616;BME280;51027;42.162;24.754;2022-09-12T06:42:55;99372.63;;;19.53;73.48
64616;BME280;51027;42.162;24.754;2022-09-12T06:45:21;99362.19;;;19.73;73.57
64616;BME280;51027;42.162;24.754;2022-09-12T06:47:47;99365.41;;;19.88;73.17
64616;BME280;51027;42.162;24.754;2022-09-12T06:50:12;99366.50;;;19.85;73.88
64616;BME280;51027;42.162;24.754;2022-09-12T06:52:38;99372.34;;;20.11;72.51
64616;BME280;51027;42.162;24.754;2022-09-12T06:55:03;99349.38;;;19.88;72.53
64616;BME280;51027;42.162;24.754;2022-09-12T06:57:30;99366.81;;;20.03;72.04
64616;BME280;51027;42.162;24.754;2022-09-12T06:59:56;99364.19;;;20.12;71.48
64616;BME280;51027;42.162;24.754;2022-09-12T07:02:23;99352.47;;;20.25;70.58
64616;BME280;51027;42.162;24.754;2022-09-12T07:04:50;99357.09;;;20.23;69.97
64616;BME280;51027;42.162;24.754;2022-09-12T07:07:16;99363.16;;;20.57;69.85
64616;BME280;51027;42.162;24.754;2022-09-12T07:09:41;99366.06;;;20.75;68.94
64616;BME280;51027;42.162;24.754;2022-09-12T07:12:08;99369.22;;;20.59;67.77
64616;BME280;51027;42.162;24.754;2022-09-12T07:14:34;99365.53;;;20.60;67.31
64616;BME280;51027;42.162;24.754;2022-09-12T07:16:59;99363.03;;;20.89;66.96
64616;BME280;51027;42.162;24.754;2022-09-12T07:19:26;99366.47;;;21.00;66.13
64616;BME280;51027;42.162;24.754;2022-09-12T07:21:51;99365.06;;;20.96;65.04
64616;BME280;51027;42.162;24.754;2022-09-12T07:24:16;99364.88;;;20.88;65.79
64616;BME280;51027;42.162;24.754;2022-09-12T07:26:42;99355.66;;;21.12;65.34
64616;BME280;51027;42.162;24.754;2022-09-12T07:29:12;99363.13;;;21.08;66.16
64616;BME280;51027;42.162;24.754;2022-09-12T07:31:38;99354.66;;;21.13;63.19
64616;BME280;51027;42.162;24.754;2022-09-12T07:34:04;99335.13;;;20.91;63.37
64616;BME280;51027;42.162;24.754;2022-09-12T07:36:30;99364.28;;;21.15;63.27
64616;BME280;51027;42.162;24.754;2022-09-12T07:38:56;99359.22;;;21.22;62.86
64616;BME280;51027;42.162;24.754;2022-09-12T07:41:29;99366.97;;;21.25;61.08
64616;BME280;51027;42.162;24.754;2022-09-12T07:43:57;99365.19;;;21.35;61.85
64616;BME280;51027;42.162;24.754;2022-09-12T07:46:24;99362.38;;;21.27;60.87
64616;BME280;51027;42.162;24.754;2022-09-12T07:48:54;99361.31;;;21.49;61.12
64616;BME280;51027;42.162;24.754;2022-09-12T07:51:21;99365.72;;;21.69;58.51
64616;BME280;51027;42.162;24.754;2022-09-12T07:53:47;99333.69;;;21.68;57.11
64616;BME280;51027;42.162;24.754;2022-09-12T07:56:14;99328.47;;;21.76;56.65
64616;BME280;51027;42.162;24.754;2022-09-12T07:58:41;99333.69;;;21.58;56.51
64616;BME280;51027;42.162;24.754;2022-09-12T08:01:13;99348.09;;;21.96;55.71
64616;BME280;51027;42.162;24.754;2022-09-12T08:03:39;99370.97;;;22.00;54.97
64616;BME280;51027;42.162;24.754;2022-09-12T08:06:10;99356.59;;;22.10;54.76
64616;BME280;51027;42.162;24.754;2022-09-12T08:08:38;99343.75;;;22.24;54.74
64616;BME280;51027;42.162;24.754;2022-09-12T08:11:06;99343.59;;;22.35;53.43
64616;BME280;51027;42.162;24.754;2022-09-12T08:13:33;99344.66;;;22.71;53.33
64616;BME280;51027;42.162;24.754;2022-09-12T08:16:01;99348.19;;;22.71;52.61
64616;BME280;51027;42.162;24.754;2022-09-12T08:18:27;99337.28;;;22.73;53.06
64616;BME280;51027;42.162;24.754;2022-09-12T08:21:01;99340.28;;;22.70;52.01
64616;BME280;51027;42.162;24.754;2022-09-12T08:23:27;99348.31;;;22.70;51.01
64616;BME280;51027;42.162;24.754;2022-09-12T08:26:01;99355.72;;;23.05;51.59
64616;BME280;51027;42.162;24.754;2022-09-12T08:28:28;99344.00;;;23.34;51.19
64616;BME280;51027;42.162;24.754;2022-09-12T08:31:02;99350.00;;;23.45;50.79
64616;BME280;51027;42.162;24.754;2022-09-12T08:33:29;99342.84;;;23.36;50.68
64616;BME280;51027;42.162;24.754;2022-09-12T08:38:34;99329.75;;;23.51;49.61
64616;BME280;51027;42.162;24.754;2022-09-12T08:46:50;99345.28;;;23.02;48.53
64616;BME280;51027;42.162;24.754;2022-09-12T08:49:32;99334.97;;;23.52;49.19
64616;BME280;51027;42.162;24.754;2022-09-12T08:52:02;99333.19;;;23.43;49.28
64616;BME280;51027;42.162;24.754;2022-09-12T08:54:30;99324.88;;;23.64;48.62
64616;BME280;51027;42.162;24.754;2022-09-12T08:57:00;99320.59;;;23.71;48.08
64616;BME280;51027;42.162;24.754;2022-09-12T08:59:41;99326.06;;;23.52;49.29
64616;BME280;51027;42.162;24.754;2022-09-12T09:04:50;99322.13;;;23.19;49.14
64616;BME280;51027;42.162;24.754;2022-09-12T09:15:28;99317.53;;;24.28;47.76
64616;BME280;51027;42.162;24.754;2022-09-12T09:18:01;99299.81;;;23.99;47.56
64616;BME280;51027;42.162;24.754;2022-09-12T09:20:38;99301.81;;;24.33;47.13
64616;BME280;51027;42.162;24.754;2022-09-12T09:28:21;99299.00;;;24.25;46.69
64616;BME280;51027;42.162;24.754;2022-09-12T09:30:48;99302.16;;;24.38;45.87
64616;BME280;51027;42.162;24.754;2022-09-12T09:33:20;99296.59;;;23.96;45.76
64616;BME280;51027;42.162;24.754;2022-09-12T09:35:53;99299.34;;;24.22;45.26
64616;BME280;51027;42.162;24.754;2022-09-12T09:41:19;99291.97;;;24.50;46.18
64616;BME280;51027;42.162;24.754;2022-09-12T09:43:49;99284.78;;;24.84;44.73
64616;BME280;51027;42.162;24.754;2022-09-12T09:46:14;99290.38;;;24.39;46.86
64616;BME280;51027;42.162;24.754;2022-09-12T09:48:44;99285.63;;;24.59;45.35
64616;BME280;51027;42.162;24.754;2022-09-12T09:51:10;99287.06;;;24.45;43.41
64616;BME280;51027;42.162;24.754;2022-09-12T09:56:32;99265.22;;;24.30;43.48
64616;BME280;51027;42.162;24.754;2022-09-12T10:02:21;99282.94;;;24.93;42.92
64616;BME280;51027;42.162;24.754;2022-09-12T10:04:55;99286.19;;;24.70;41.07
64616;BME280;51027;42.162;24.754;2022-09-12T10:07:22;99290.88;;;24.94;42.24
64616;BME280;51027;42.162;24.754;2022-09-12T10:10:17;99287.00;;;24.37;43.28
64616;BME280;51027;42.162;24.754;2022-09-12T10:12:44;99296.56;;;24.91;43.30
64616;BME280;51027;42.162;24.754;2022-09-12T10:15:22;99283.09;;;24.91;42.85
64616;BME280;51027;42.162;24.754;2022-09-12T10:17:49;99287.13;;;24.53;43.12
64616;BME280;51027;42.162;24.754;2022-09-12T10:20:40;99285.63;;;24.93;43.16
64616;BME280;51027;42.162;24.754;2022-09-12T10:23:29;99285.13;;;24.89;42.29
64616;BME280;51027;42.162;24.754;2022-09-12T10:26:00;99277.19;;;25.14;41.17
64616;BME280;51027;42.162;24.754;2022-09-12T10:31:02;99274.91;;;24.67;42.41
64616;BME280;51027;42.162;24.754;2022-09-12T10:33:28;99279.94;;;24.96;42.48
64616;BME280;51027;42.162;24.754;2022-09-12T10:35:54;99270.13;;;25.29;41.61
64616;BME280;51027;42.162;24.754;2022-09-12T10:38:27;99270.44;;;25.18;41.85
64616;BME280;51027;42.162;24.754;2022-09-12T10:41:02;99264.97;;;25.60;41.44
64616;BME280;51027;42.162;24.754;2022-09-12T10:48:44;99275.38;;;25.39;41.52
64616;BME280;51027;42.162;24.754;2022-09-12T10:51:26;99266.41;;;25.14;40.82
64616;BME280;51027;42.162;24.754;2022-09-12T10:56:31;99275.63;;;25.70;39.75
64616;BME280;51027;42.162;24.754;2022-09-12T11:01:44;99254.94;;;25.20;41.28
64616;BME280;51027;42.162;24.754;2022-09-12T11:15:08;99272.16;;;24.93;40.61
64616;BME280;51027;42.162;24.754;2022-09-12T11:25:39;99260.28;;;24.69;41.59
64616;BME280;51027;42.162;24.754;2022-09-12T11:28:38;99235.72;;;25.23;40.53
64616;BME280;51027;42.162;24.754;2022-09-12T11:33:43;99259.34;;;25.29;39.77
64616;BME280;51027;42.162;24.754;2022-09-12T11:36:34;99243.81;;;25.15;40.58
64616;BME280;51027;42.162;24.754;2022-09-12T11:39:23;99246.56;;;25.39;40.34
64616;BME280;51027;42.162;24.754;2022-09-12T11:41:56;99245.25;;;25.68;40.20
64616;BME280;51027;42.162;24.754;2022-09-12T11:44:35;99244.22;;;25.52;40.15
64616;BME280;51027;42.162;24.754;2022-09-12T11:47:22;99232.75;;;25.42;40.32
64616;BME280;51027;42.162;24.754;2022-09-12T11:49:50;99245.06;;;25.61;40.87
64616;BME280;51027;42.162;24.754;2022-09-12T11:52:25;99257.22;;;25.57;40.41
64616;BME280;51027;42.162;24.754;2022-09-12T11:55:10;99240.00;;;24.91;40.82
64616;BME280;51027;42.162;24.754;2022-09-12T12:00:17;99241.97;;;25.23;40.66
64616;BME280;51027;42.162;24.754;2022-09-12T12:08:21;99229.59;;;25.71;40.77
64616;BME280;51027;42.162;24.754;2022-09-12T12:10:54;99232.09;;;26.22;39.43
64616;BME280;51027;42.162;24.754;2022-09-12T12:13:25;99231.94;;;25.66;40.90
64616;BME280;51027;42.162;24.754;2022-09-12T12:18:44;99231.63;;;25.03;41.06
64616;BME280;51027;42.162;24.754;2022-09-12T12:42:09;99222.66;;;25.44;38.81
64616;BME280;51027;42.162;24.754;2022-09-12T12:47:24;99196.53;;;26.10;38.52
64616;BME280;51027;42.162;24.754;2022-09-12T12:50:00;99208.91;;;26.60;38.44
64616;BME280;51027;42.162;24.754;2022-09-12T12:52:31;99213.84;;;26.48;37.97
64616;BME280;51027;42.162;24.754;2022-09-12T12:55:04;99206.13;;;26.37;38.59
64616;BME280;51027;42.162;24.754;2022-09-12T12:57:47;99228.53;;;26.46;38.37
64616;BME280;51027;42.162;24.754;2022-09-12T13:02:58;99216.94;;;25.47;39.22
64616;BME280;51027;42.162;24.754;2022-09-12T13:05:26;99226.13;;;25.04;40.31
64616;BME280;51027;42.162;24.754;2022-09-12T13:07:56;99231.09;;;24.57;40.62
64616;BME280;51027;42.162;24.754;2022-09-12T13:10:25;99227.34;;;24.50;41.43
64616;BME280;51027;42.162;24.754;2022-09-12T13:12:55;99227.53;;;24.30;41.36
64616;BME280;51027;42.162;24.754;2022-09-12T13:15:46;99230.19;;;24.48;41.49
64616;BME280;51027;42.162;24.754;2022-09-12T13:18:19;99225.09;;;24.63;41.81
64616;BME280;51027;42.162;24.754;2022-09-12T13:20:53;99201.38;;;24.75;41.02
64616;BME280;51027;42.162;24.754;2022-09-12T13:23:25;99209.22;;;24.94;41.17
64616;BME280;51027;42.162;24.754;2022-09-12T13:25:58;99225.88;;;24.55;41.35
64616;BME280;51027;42.162;24.754;2022-09-12T13:28:27;99217.75;;;24.47;42.99
64616;BME280;51027;42.162;24.754;2022-09-12T13:31:00;99212.03;;;24.42;43.05
64616;BME280;51027;42.162;24.754;2022-09-12T13:36:09;99213.22;;;24.48;42.29
64616;BME280;51027;42.162;24.754;2022-09-12T13:44:42;99210.00;;;25.53;40.27
64616;BME280;51027;42.162;24.754;2022-09-12T13:47:13;99209.34;;;25.67;40.38
64616;BME280;51027;42.162;24.754;2022-09-12T13:49:41;99210.84;;;25.62;39.58
64616;BME280;51027;42.162;24.754;2022-09-12T13:52:15;99214.25;;;25.80;39.51
64616;BME280;51027;42.162;24.754;2022-09-12T13:54:43;99214.28;;;25.88;38.61
64616;BME280;51027;42.162;24.754;2022-09-12T13:59:55;99220.31;;;25.58;39.74
64616;BME280;51027;42.162;24.754;2022-09-12T14:02:24;99223.13;;;25.32;40.27
64616;BME280;51027;42.162;24.754;2022-09-12T14:04:51;99193.88;;;24.94;41.33
64616;BME280;51027;42.162;24.754;2022-09-12T14:10:48;99211.75;;;25.70;38.52
64616;BME280;51027;42.162;24.754;2022-09-12T14:13:24;99212.09;;;25.75;39.19
64616;BME280;51027;42.162;24.754;2022-09-12T14:15:52;99209.34;;;25.59;38.82
64616;BME280;51027;42.162;24.754;2022-09-12T14:18:27;99216.75;;;25.41;40.51
64616;BME280;51027;42.162;24.754;2022-09-12T14:20:55;99210.19;;;25.35;39.90
64616;BME280;51027;42.162;24.754;2022-09-12T14:25:55;99211.78;;;25.12;41.50
64616;BME280;51027;42.162;24.754;2022-09-12T14:28:21;99217.56;;;25.33;40.00
64616;BME280;51027;42.162;24.754;2022-09-12T14:30:58;99221.09;;;25.25;40.57
64616;BME280;51027;42.162;24.754;2022-09-12T14:33:24;99221.94;;;25.26;40.72
64616;BME280;51027;42.162;24.754;2022-09-12T14:35:52;99224.97;;;25.15;39.82
64616;BME280;51027;42.162;24.754;2022-09-12T14:38:35;99227.28;;;25.10;40.47
64616;BME280;51027;42.162;24.754;2022-09-12T14:41:05;99227.66;;;25.15;40.50
64616;BME280;51027;42.162;24.754;2022-09-12T14:43:34;99227.53;;;24.90;41.39
64616;BME280;51027;42.162;24.754;2022-09-12T14:46:17;99224.94;;;25.07;40.99
64616;BME280;51027;42.162;24.754;2022-09-12T14:49:08;99230.91;;;24.92;41.89
64616;BME280;51027;42.162;24.754;2022-09-12T14:51:39;99230.66;;;24.69;42.73
64616;BME280;51027;42.162;24.754;2022-09-12T14:54:05;99233.78;;;24.57;42.63
64616;BME280;51027;42.162;24.754;2022-09-12T14:56:52;99227.53;;;24.90;42.44
64616;BME280;51027;42.162;24.754;2022-09-12T14:59:36;99230.53;;;24.45;42.91
64616;BME280;51027;42.162;24.754;2022-09-12T15:04:40;99238.28;;;24.48;42.17
64616;BME280;51027;42.162;24.754;2022-09-12T15:09:57;99242.13;;;24.80;42.44
64616;BME280;51027;42.162;24.754;2022-09-12T15:12:23;99235.25;;;24.51;42.25
64616;BME280;51027;42.162;24.754;2022-09-12T15:14:49;99243.22;;;24.53;43.01
64616;BME280;51027;42.162;24.754;2022-09-12T15:17:14;99232.28;;;24.10;42.03
64616;BME280;51027;42.162;24.754;2022-09-12T15:19:40;99243.97;;;23.75;43.77
64616;BME280;51027;42.162;24.754;2022-09-12T15:22:05;99239.81;;;23.63;43.52
64616;BME280;51027;42.162;24.754;2022-09-12T15:24:31;99244.41;;;23.53;44.26
64616;BME280;51027;42.162;24.754;2022-09-12T15:26:56;99253.00;;;23.56;44.26
64616;BME280;51027;42.162;24.754;2022-09-12T15:29:22;99256.66;;;23.38;45.19
64616;BME280;51027;42.162;24.754;2022-09-12T15:31:49;99259.59;;;23.26;44.43
64616;BME280;51027;42.162;24.754;2022-09-12T15:34:15;99255.81;;;23.37;45.01
64616;BME280;51027;42.162;24.754;2022-09-12T15:36:40;99257.38;;;23.40;45.11
64616;BME280;51027;42.162;24.754;2022-09-12T15:39:07;99246.63;;;23.22;44.99
64616;BME280;51027;42.162;24.754;2022-09-12T15:41:35;99247.84;;;23.10;44.81
64616;BME280;51027;42.162;24.754;2022-09-12T15:44:05;99252.63;;;23.06;45.13
64616;BME280;51027;42.162;24.754;2022-09-12T15:46:32;99261.47;;;23.16;45.62
64616;BME280;51027;42.162;24.754;2022-09-12T15:48:57;99265.38;;;23.04;45.37
64616;BME280;51027;42.162;24.754;2022-09-12T15:51:23;99260.53;;;23.08;45.43
64616;BME280;51027;42.162;24.754;2022-09-12T15:53:49;99266.72;;;22.90;45.60
64616;BME280;51027;42.162;24.754;2022-09-12T15:56:16;99271.94;;;22.92;45.71
64616;BME280;51027;42.162;24.754;2022-09-12T15:58:42;99246.47;;;22.68;45.34
64616;BME280;51027;42.162;24.754;2022-09-12T16:01:12;99265.78;;;22.72;46.04
64616;BME280;51027;42.162;24.754;2022-09-12T16:03:38;99263.94;;;22.73;45.97
64616;BME280;51027;42.162;24.754;2022-09-12T16:06:04;99265.78;;;22.72;45.68
64616;BME280;51027;42.162;24.754;2022-09-12T16:08:30;99271.59;;;22.67;45.85
64616;BME280;51027;42.162;24.754;2022-09-12T16:11:02;99270.91;;;22.65;46.52
64616;BME280;51027;42.162;24.754;2022-09-12T16:13:29;99277.09;;;22.66;46.21
64616;BME280;51027;42.162;24.754;2022-09-12T16:15:58;99273.72;;;22.64;46.82